createdAt,value
2019-04-05T00:00:24.637Z,89.35
2019-04-05T00:05:18.752Z,89.40
2019-04-05T00:10:13.036Z,89.47
2019-04-05T00:15:15.077Z,89.58
2019-04-05T00:20:05.174Z,89.07
2019-04-05T00:24:59.255Z,88.88
2019-04-05T00:29:53.235Z,88.75
2019-04-05T00:34:47.191Z,88.89
2019-04-05T00:39:41.195Z,88.64
2019-04-05T00:44:35.175Z,88.72
2019-04-05T00:49:29.245Z,88.47
2019-04-05T00:54:23.203Z,88.36
2019-04-05T00:59:17.143Z,88.29
2019-04-05T01:04:11.129Z,88.30
2019-04-05T01:09:06.705Z,88.32
2019-04-05T01:14:00.672Z,88.22
2019-04-05T01:18:54.686Z,88.27
2019-04-05T01:23:51.155Z,88.39
2019-04-05T01:28:45.215Z,88.50
2019-04-05T01:33:39.200Z,88.65
2019-04-05T01:38:33.271Z,88.60
2019-04-05T01:43:27.453Z,88.64
2019-04-05T01:48:21.423Z,88.48
2019-04-05T01:53:15.785Z,88.43
2019-04-05T01:58:10.086Z,88.30
2019-04-05T02:03:04.160Z,88.24
2019-04-05T02:07:58.417Z,88.54
2019-04-05T02:12:52.531Z,88.58
2019-04-05T02:17:46.670Z,88.49
2019-04-05T02:22:40.638Z,88.80
2019-04-05T02:27:34.699Z,88.76
2019-04-05T02:32:28.852Z,88.76
2019-04-05T02:37:22.918Z,88.55
2019-04-05T02:42:17.697Z,88.45
2019-04-05T02:47:12.048Z,88.34
2019-04-05T02:52:06.330Z,87.94
2019-04-05T02:57:01.028Z,87.86
2019-04-05T03:01:55.202Z,88.01
2019-04-05T03:06:50.163Z,88.17
2019-04-05T03:11:44.224Z,88.34
2019-04-05T03:16:41.999Z,88.18
2019-04-05T03:21:39.701Z,88.47
2019-04-05T03:26:36.198Z,88.57
2019-04-05T03:31:30.391Z,88.67
2019-04-05T03:36:24.449Z,88.51
2019-04-05T03:41:18.507Z,88.35
2019-04-05T03:46:12.582Z,88.18
2019-04-05T03:51:07.444Z,88.24
2019-04-05T03:56:02.246Z,88.59
2019-04-05T04:00:56.566Z,88.59
2019-04-05T04:05:50.741Z,88.58
2019-04-05T04:10:45.939Z,88.59
2019-04-05T04:15:40.097Z,88.77
2019-04-05T04:20:41.141Z,88.71
2019-04-05T04:25:36.059Z,89.01
2019-04-05T04:30:30.636Z,89.40
2019-04-05T04:35:24.700Z,89.78
2019-04-05T04:40:18.969Z,89.81
2019-04-05T04:45:13.216Z,89.51
2019-04-05T04:50:07.851Z,89.70
2019-04-05T04:55:02.523Z,89.65
2019-04-05T04:59:56.839Z,89.74
2019-04-05T05:04:51.047Z,90.01
2019-04-05T05:09:45.509Z,90.06
2019-04-05T05:14:39.798Z,90.31
2019-04-05T05:19:33.900Z,90.41
2019-04-05T05:24:28.067Z,90.13
2019-04-05T05:29:22.351Z,89.61
2019-04-05T05:34:16.535Z,89.22
2019-04-05T05:39:10.601Z,88.92
2019-04-05T05:44:04.675Z,88.39
2019-04-05T05:48:58.782Z,88.19
2019-04-05T05:53:52.870Z,87.92
2019-04-05T05:58:46.867Z,87.81
2019-04-05T06:03:40.993Z,87.34
2019-04-05T06:08:35.271Z,86.60
2019-04-05T06:13:29.222Z,85.84
2019-04-05T06:18:23.226Z,85.38
2019-04-05T06:23:17.483Z,84.58
2019-04-05T06:28:11.654Z,84.22
2019-04-05T06:33:05.771Z,84.16
2019-04-05T06:37:59.842Z,83.78
2019-04-05T06:42:53.805Z,83.07
2019-04-05T06:47:47.777Z,83.45
2019-04-05T06:52:41.787Z,82.83
2019-04-05T06:57:35.759Z,83.15
2019-04-05T07:02:29.872Z,82.03
2019-04-05T07:07:24.034Z,81.65
2019-04-05T07:12:20.531Z,82.30
2019-04-05T07:17:14.085Z,82.60
2019-04-05T07:22:08.071Z,82.91
2019-04-05T07:27:02.255Z,82.34
2019-04-05T07:31:56.354Z,82.02
2019-04-05T07:36:50.426Z,80.57
2019-04-05T07:41:44.400Z,78.15
2019-04-05T07:46:38.384Z,76.55
2019-04-05T07:51:32.361Z,75.04
2019-04-05T07:56:26.439Z,73.54
2019-04-05T08:01:20.575Z,74.32
2019-04-05T08:06:15.509Z,75.38
2019-04-05T08:11:09.772Z,75.21
2019-04-05T08:16:03.897Z,76.00
2019-04-05T08:20:57.913Z,72.62
2019-04-05T08:25:52.019Z,71.57
2019-04-05T08:30:45.996Z,71.48
2019-04-05T08:35:40.076Z,71.42
2019-04-05T08:40:34.054Z,70.69
2019-04-05T08:45:28.211Z,66.49
2019-04-05T08:50:22.209Z,65.22
2019-04-05T08:55:16.344Z,64.76
2019-04-05T09:00:10.783Z,66.18
2019-04-05T09:05:06.674Z,67.02
2019-04-05T09:10:00.647Z,66.22
2019-04-05T09:14:54.719Z,65.88
2019-04-05T09:19:48.710Z,65.47
2019-04-05T09:24:42.693Z,64.26
2019-04-05T09:29:36.673Z,63.56
2019-04-05T09:34:30.990Z,63.89
2019-04-05T09:39:25.242Z,63.72
2019-04-05T09:44:19.359Z,61.92
2019-04-05T09:49:13.324Z,60.51
2019-04-05T09:54:07.369Z,58.80
2019-04-05T09:59:01.343Z,56.26
2019-04-05T10:03:55.464Z,53.62
2019-04-05T10:08:49.523Z,52.77
2019-04-05T10:13:43.617Z,52.14
2019-04-05T10:18:37.613Z,52.09
2019-04-05T10:23:31.630Z,52.02
2019-04-05T10:28:25.621Z,51.10
2019-04-05T10:33:19.618Z,46.44
2019-04-05T10:38:13.978Z,46.54
2019-04-05T10:43:08.070Z,45.95
2019-04-05T10:48:02.362Z,46.98
2019-04-05T10:52:56.482Z,48.04
2019-04-05T10:57:50.537Z,49.28
2019-04-05T11:02:44.731Z,50.37
2019-04-05T11:07:38.736Z,49.93
2019-04-05T11:12:32.669Z,49.78
2019-04-05T11:17:26.650Z,49.07
2019-04-05T11:22:21.147Z,52.16
2019-04-05T11:27:15.216Z,53.60
2019-04-05T11:32:09.302Z,55.44
2019-04-05T11:37:03.493Z,55.60
2019-04-05T11:41:58.010Z,52.98
2019-04-05T11:46:53.294Z,51.98
2019-04-05T11:51:47.370Z,52.21
2019-04-05T11:56:41.369Z,52.83
2019-04-05T12:01:37.288Z,53.93
2019-04-05T12:06:31.285Z,54.11
2019-04-05T12:11:25.409Z,54.50
2019-04-05T12:16:19.519Z,54.73
2019-04-05T12:21:13.719Z,55.07
2019-04-05T12:26:07.818Z,56.46
2019-04-05T12:31:01.921Z,57.05
2019-04-05T12:35:56.598Z,57.20
2019-04-05T12:40:51.145Z,55.98
2019-04-05T12:45:45.303Z,55.71
2019-04-05T12:50:39.442Z,55.40
2019-04-05T12:55:33.693Z,55.96
2019-04-05T13:00:27.795Z,56.86
2019-04-05T13:05:21.969Z,57.36
2019-04-05T13:10:16.261Z,57.83
2019-04-05T13:15:16.594Z,57.81
2019-04-05T13:20:07.031Z,59.39
2019-04-05T13:25:01.416Z,58.95
2019-04-05T13:29:55.488Z,58.70
2019-04-05T13:34:49.537Z,58.74
2019-04-05T13:39:43.589Z,58.49
2019-04-05T13:44:37.616Z,59.49
2019-04-05T13:49:31.592Z,58.58
2019-04-05T13:54:25.837Z,58.82
2019-04-05T13:59:19.924Z,59.41
2019-04-05T14:04:16.858Z,59.73
2019-04-05T14:09:10.489Z,58.83
2019-04-05T14:14:04.936Z,59.30
2019-04-05T14:18:59.151Z,59.79
2019-04-05T14:23:53.918Z,60.70
2019-04-05T14:28:48.137Z,61.61
2019-04-05T14:33:42.310Z,62.30
2019-04-05T14:38:36.320Z,62.39
2019-04-05T14:43:30.438Z,62.60
2019-04-05T14:48:27.341Z,62.62
2019-04-05T14:53:20.275Z,62.88
2019-04-05T14:58:14.380Z,63.74
2019-04-05T15:03:08.397Z,63.86
2019-04-05T15:08:02.545Z,64.03
2019-04-05T15:12:56.627Z,64.31
2019-04-05T15:17:50.693Z,64.42
2019-04-05T15:22:44.709Z,64.74
2019-04-05T15:27:38.903Z,65.05
2019-04-05T15:32:33.998Z,65.52
2019-04-05T15:37:31.771Z,66.30
2019-04-05T15:42:24.054Z,66.73
2019-04-05T15:47:18.092Z,66.53
2019-04-05T15:52:18.712Z,66.62
2019-04-05T15:57:08.090Z,67.18
2019-04-05T16:02:03.937Z,67.42
2019-04-05T16:06:58.077Z,67.27
2019-04-05T16:11:52.257Z,67.69
2019-04-05T16:16:46.460Z,67.23
2019-04-05T16:21:40.565Z,68.03
2019-04-05T16:26:34.791Z,68.62
2019-04-05T16:31:28.913Z,68.85
2019-04-05T16:36:23.144Z,69.05
2019-04-05T16:41:17.307Z,69.57
2019-04-05T16:46:11.417Z,69.82
2019-04-05T16:51:05.534Z,69.89
2019-04-05T16:55:59.754Z,70.13
2019-04-05T17:00:53.766Z,70.44
2019-04-05T17:05:47.880Z,70.21
2019-04-05T17:10:41.860Z,70.23
2019-04-05T17:15:36.061Z,70.65
2019-04-05T17:20:30.080Z,70.57
2019-04-05T17:25:24.202Z,70.91
2019-04-05T17:30:18.304Z,71.25
2019-04-05T17:35:12.497Z,71.56
2019-04-05T17:40:06.900Z,71.71
2019-04-05T17:45:00.996Z,72.01
2019-04-05T17:49:54.991Z,72.36
2019-04-05T17:54:49.084Z,72.78
2019-04-05T17:59:43.303Z,72.94
2019-04-05T18:04:37.432Z,73.41
2019-04-05T18:09:31.466Z,73.50
2019-04-05T18:14:25.684Z,73.99
2019-04-05T18:19:19.792Z,74.70
2019-04-05T18:24:13.793Z,74.69
2019-04-05T18:29:07.900Z,74.57
2019-04-05T18:34:01.981Z,74.87
2019-04-05T18:38:56.187Z,74.98
2019-04-05T18:43:50.167Z,74.80
2019-04-05T18:48:44.283Z,74.88
2019-04-05T18:53:38.772Z,74.86
2019-04-05T18:58:32.772Z,75.16
2019-04-05T19:03:26.786Z,75.22
2019-04-05T19:08:21.023Z,75.35
2019-04-05T19:13:15.300Z,75.65
2019-04-05T19:18:09.490Z,75.59
2019-04-05T19:23:03.549Z,75.77
2019-04-05T19:27:57.669Z,75.92
2019-04-05T19:52:35.774Z,76.75
2019-04-05T19:57:29.746Z,76.45
2019-04-05T20:02:24.168Z,76.99
2019-04-05T20:07:18.315Z,76.95
2019-04-05T20:12:12.499Z,76.94
2019-04-05T20:17:08.177Z,77.17
2019-04-05T20:22:02.543Z,77.09
2019-04-05T20:26:56.663Z,77.26
2019-04-05T20:31:50.777Z,77.66
2019-04-05T20:36:44.772Z,77.56
2019-04-05T20:41:38.883Z,77.38
2019-04-05T20:46:32.836Z,77.63
2019-04-05T20:51:26.935Z,77.71
2019-04-05T20:56:20.925Z,77.60
2019-04-05T21:01:15.112Z,78.00
2019-04-05T21:06:09.190Z,77.99
2019-04-05T21:11:03.380Z,77.81
2019-04-05T21:15:57.686Z,78.16
2019-04-05T21:20:51.933Z,78.49
2019-04-05T21:25:45.956Z,78.19
2019-04-05T21:30:40.081Z,78.03
2019-04-05T21:35:34.322Z,78.41
2019-04-05T21:40:28.310Z,78.00
2019-04-05T21:45:22.501Z,77.70
2019-04-05T21:50:16.479Z,77.96
2019-04-05T21:55:10.863Z,78.28
2019-04-05T22:00:11.750Z,78.37
2019-04-05T22:05:06.191Z,78.55
2019-04-05T22:10:00.298Z,78.37
2019-04-05T22:14:54.281Z,78.59
2019-04-05T22:19:48.287Z,78.70
2019-04-05T22:24:42.389Z,78.64
2019-04-05T22:29:36.455Z,78.90
2019-04-05T22:34:30.465Z,78.83
2019-04-05T22:39:24.501Z,78.79
2019-04-05T22:44:18.476Z,78.81
2019-04-05T22:49:12.447Z,78.72
2019-04-05T22:54:06.621Z,78.87
2019-04-05T22:59:00.611Z,79.09
2019-04-05T23:03:54.679Z,78.78
2019-04-05T23:08:48.674Z,78.95
2019-04-05T23:13:42.817Z,79.06
2019-04-05T23:18:36.935Z,78.88
2019-04-05T23:23:30.914Z,78.86
2019-04-05T23:28:25.060Z,78.97
2019-04-05T23:33:19.147Z,78.69
2019-04-05T23:38:13.417Z,79.21
2019-04-05T23:43:07.401Z,78.60
2019-04-05T23:48:01.392Z,78.97
2019-04-05T23:52:55.363Z,78.76
2019-04-05T23:57:49.367Z,78.71
